• Join FlightAware (Why Join?)
  • Login
  • US Flag 
06:49AM EDT


 

Airport Tracker/Info


-or-


 

Live Flight TrackerFlight Track Log ✈ ASQ5685 ✈ 22-Apr-2013 ✈ KBTV - KIAD

Flight Track Log - Related Links

Times and Time Zones

All times are in EDT time to prevent confusion due to time zone crossing. See the ASQ5685 flight status page for this flight to view local times or setup timezone preferences in your user account.

Time Position Orientation Groundspeed Altitude Reporting Facility
EDT Latitude Longitude Course Direction KTS MPH feet Rate Location/Type
02:50PM 44.3153 -73.1508 195° South 219 252 8,400  Level Boston Center
02:51PM 44.0375 -73.3117 196° South  Level FlightAware Approximate
02:51PM 44.2444 -73.1819 197° South 256 295 10,900  Level Boston Center
02:52PM 43.9518 -73.3460 196° South  Level FlightAware Approximate
02:52PM 44.1608 -73.2156 196° South 290 334 13,000  Level Boston Center
02:53PM 43.8660 -73.3793 195° South  Level FlightAware Approximate
02:53PM 44.0750 -73.2522 197° South 315 362 14,600  Level Boston Center
02:54PM 43.7799 -73.4111 195° South  Level FlightAware Approximate
02:54PM 43.9831 -73.2911 197° South 338 389 16,200  Level Boston Center
02:55PM 43.6937 -73.4428 195° South  Level FlightAware Approximate
02:55PM 43.8869 -73.3331 197° South 360 414 17,800  Level Boston Center
02:56PM 43.7886 -73.3747 197° South 365 420 19,200 1,680 Climbing Boston Center
02:57PM 43.6947 -73.4136 197° South 365 420 21,200 1,860 Climbing Boston Center
02:58PM 43.6025 -73.4492 196° South 360 414 23,000 1,620 Climbing Boston Center
02:59PM 43.5106 -73.4878 197° South 354 407 24,500 1,260 Climbing Boston Center
03:00PM 43.4164 -73.5261 196° South 354 407 25,600 900 Climbing Boston Center
03:01PM 43.3203 -73.5644 196° South 354 407 26,400 780 Climbing Boston Center
03:02PM 43.2239 -73.6083 198° South 365 420 27,200 720 Climbing Boston Center
03:03PM 43.1403 -73.6381 195° South 370 426 27,900 360 Climbing Boston Center
03:04PM 43.0272 -73.6897 198° South 381 438 28,000  Climbing Boston Center
03:05PM 42.9203 -73.7331 197° South 393 452 28,000  Level Boston Center
03:06PM 42.8094 -73.7786 197° South 406 467 28,000  Level Boston Center
03:07PM 42.7025 -73.8244 197° South 406 467 28,000  Level Boston Center
03:08PM 42.5850 -73.8811 200° South 404 465 28,000  Level Boston Center
03:09PM 42.4781 -73.9292 198° South 404 465 28,000  Level Boston Center
03:10PM 42.3775 -73.9719 197° South 404 465 28,000  Level Boston Center
03:11PM 42.2831 -74.0172 200° South 385 443 28,000  Level Boston Center
03:12PM 42.1911 -74.0400 190° South 360 414 28,000  Level Boston Center
03:13PM 42.0953 -74.0461 183° South 350 403 28,000  Level Boston Center
03:14PM 42.0033 -74.0494 182° South 345 397 28,000  Level Boston Center
03:16PM 41.8156 -74.0581 182° South 353 406 28,000  Level New York Center
03:17PM 41.7197 -74.0614 181° South 353 406 28,000  Level New York Center
03:18PM 41.6236 -74.0678 183° South 353 406 28,000  Level New York Center
03:19PM 41.5464 -74.0725 183° South 345 397 28,000 -420 Level New York Center
03:20PM 41.4567 -74.0789 183° South 333 383 27,200 -900 Descending New York Center
03:21PM 41.3628 -74.0853 183° South 333 383 26,200 -600 Descending New York Center
03:22PM 41.2567 -74.0911 182° South 339 390 26,000 -120 Descending New York Center
03:23PM 41.1583 -74.1000 184° South 350 403 26,000  Level New York Center
03:24PM 41.0975 -74.1933 229° Southwest 324 373 26,000  Level New York Center
03:25PM 41.0469 -74.2844 234° Southwest 324 373 26,000  Level New York Center
03:26PM 40.9956 -74.3944 238° Southwest 339 390 26,000  Level New York Center
03:27PM 40.9464 -74.5044 239° Southwest 351 404 26,000  Level New York Center
03:28PM 40.8994 -74.6036 238° Southwest 344 396 26,000  Level New York Center
03:29PM 40.8667 -74.7114 248° West 324 373 26,000 -60 Level New York Center
03:30PM 40.8358 -74.8194 249° West 313 360 25,900 -540 Descending New York Center
03:31PM 40.8008 -74.9269 247° West 313 360 25,000 -900 Descending New York Center
03:32PM 40.7633 -75.0478 248° West 321 369 24,100 -840 Descending New York Center
03:33PM 40.7611 -75.1628 269° West 321 369 23,300 -780 Descending New York Center
03:34PM 40.7672 -75.2783 274° West 321 369 22,600 -840 Descending New York Center
03:35PM 40.7197 -75.3736 237° Southwest 301 346 21,700 -900 Descending New York Center
03:36PM 40.6619 -75.4683 231° Southwest 309 356 20,900 -840 Descending New York Center
03:37PM 40.5975 -75.5650 229° Southwest 335 386 20,100 -480 Descending New York Center
03:38PM 40.5353 -75.6617 230° Southwest 348 400 20,000 -60 Descending New York Center
03:39PM 40.4728 -75.7611 230° Southwest 353 406 20,000  Level New York Center
03:40PM 40.4061 -75.8597 228° Southwest 358 412 20,000  Level New York Center
03:41PM 40.3347 -75.9633 228° Southwest 370 426 20,000 -300 Level New York Center
03:42PM 40.2678 -76.0672 230° Southwest 375 432 19,500 -900 Descending New York Center
03:43PM 40.2028 -76.1683 230° Southwest 370 426 18,300 -900 Descending New York Center
03:44PM 40.1467 -76.2508 228° Southwest 358 412 17,800 -900 Descending New York Center
03:45PM 40.0872 -76.3656 236° Southwest 353 406 16,500 -1,200 Descending New York Center
03:46PM 40.0361 -76.4728 238° Southwest 348 400 15,500 -480 Descending New York Center
03:48PM 39.9167 -76.7167 237° Southwest 354 407 15,000 -180 Descending Potomac TRACON
03:49PM 39.8667 -76.8167 237° Southwest 350 403 15,000 -600 Level Potomac TRACON
03:50PM 39.8333 -76.9167 247° West 342 394 13,900 -1,200 Descending Potomac TRACON
03:51PM 39.7833 -77.0333 241° Southwest 335 386 12,600 -1,200 Descending Potomac TRACON
03:52PM 39.7333 -77.1333 237° Southwest 331 381 11,400 -1,200 Descending Potomac TRACON
03:53PM 39.6833 -77.2167 232° Southwest 325 374 10,400 -900 Descending Potomac TRACON
03:54PM 39.6500 -77.3000 243° Southwest 281 323 9,700 -900 Descending Potomac TRACON
03:55PM 39.5833 -77.3667 218° Southwest 265 305 8,700 -1,020 Descending Potomac TRACON
03:56PM 39.5167 -77.4167 210° Southwest 261 300 7,700 -900 Descending Potomac TRACON
03:57PM 39.4667 -77.4500 207° Southwest 259 298 7,000 -840 Descending Potomac TRACON
03:58PM 39.3833 -77.4500 180° South 259 298 6,100 -960 Descending Potomac TRACON
03:59PM 39.3167 -77.4500 180° South 265 305 5,100 -600 Descending Potomac TRACON
04:00PM 39.2500 -77.4500 180° South 262 302 5,000 -180 Descending Potomac TRACON
04:01PM 39.1833 -77.4500 180° South 209 241 4,800 -720 Descending Potomac TRACON
04:02PM 39.1333 -77.4500 180° South 179 206 3,600 -1,140 Descending Potomac TRACON
04:03PM 39.0833 -77.4500 180° South 177 204 2,600 -960 Descending Potomac TRACON
04:04PM 39.0333 -77.4667 195° South 166 191 1,700 -900 Descending Potomac TRACON